Time;durP1;ratioP1;P1;durP2;ratioP2;P2;SDS_P1;SDS_P2;PMS_P1;PMS_P2;Temp;Humidity;BMP_temperature;BMP_pressure;BME280_temperature;BME280_humidity;BME280_pressure;Samples;Min_cycle;Max_cycle;Signal;HPM_P1;HPM_P2
2023/10/06 00:01:43;;;;;;;12.02;4.93;;;;;;;;;;4246892;27;20059;-80
2023/10/06 00:03:45;;;;;;;10.48;5.60;;;;;;;;;;4244104;27;20047;-79
2023/10/06 00:05:49;;;;;;;10.73;5.07;;;;;;;;;;4235262;28;20044;-80
2023/10/06 00:07:51;;;;;;;13.20;4.70;;;;;;;;;;4240666;28;20058;-80
2023/10/06 00:09:54;;;;;;;17.55;6.10;;;;;;;;;;4248539;28;20047;-81
2023/10/06 00:11:56;;;;;;;13.93;5.10;;;;;;;;;;4248432;28;20047;-81
2023/10/06 00:14:00;;;;;;;11.88;4.80;;;;;;;;;;4247476;28;20043;-80
2023/10/06 00:16:07;;;;;;;12.52;5.18;;;;;;;;;;4231359;28;20104;-81
2023/10/06 00:18:16;;;;;;;10.55;4.75;;;;;;;;;;4231517;28;20079;-79
2023/10/06 00:20:26;;;;;;;11.40;4.90;;;;;;;;;;4231462;28;20108;-80
2023/10/06 00:22:29;;;;;;;11.43;4.43;;;;;;;;;;4241573;27;20065;-81
2023/10/06 00:24:32;;;;;;;12.23;5.35;;;;;;;;;;4265500;27;20047;-79
2023/10/06 00:26:34;;;;;;;13.23;5.55;;;;;;;;;;4257574;27;20100;-81
2023/10/06 00:28:39;;;;;;;14.95;6.10;;;;;;;;;;4247334;28;20051;-81
2023/10/06 00:30:41;;;;;;;10.52;5.43;;;;;;;;;;4231901;28;20075;-81
2023/10/06 00:32:46;;;;;;;12.68;5.57;;;;;;;;;;4231238;28;20374;-80
2023/10/06 00:34:49;;;;;;;13.00;5.32;;;;;;;;;;4231062;28;20047;-80
2023/10/06 00:36:51;;;;;;;10.82;5.68;;;;;;;;;;4236649;28;20043;-80
2023/10/06 00:38:54;;;;;;;11.18;5.63;;;;;;;;;;4233585;27;20044;-80
2023/10/06 00:40:57;;;;;;;11.45;5.97;;;;;;;;;;4234244;28;20044;-80
2023/10/06 00:43:00;;;;;;;14.95;5.70;;;;;;;;;;4234375;28;20051;-81
2023/10/06 00:45:05;;;;;;;13.68;6.00;;;;;;;;;;4234228;28;20059;-80
2023/10/06 00:47:11;;;;;;;12.27;5.10;;;;;;;;;;4234393;28;20408;-80
2023/10/06 00:49:14;;;;;;;15.05;5.47;;;;;;;;;;4250433;27;20039;-80
2023/10/06 00:51:19;;;;;;;13.13;5.57;;;;;;;;;;4249838;27;20055;-81
2023/10/06 00:53:22;;;;;;;13.05;5.22;;;;;;;;;;4251157;27;20396;-80
2023/10/06 00:55:30;;;;;;;11.55;5.65;;;;;;;;;;4254268;27;20046;-81
2023/10/06 00:57:32;;;;;;;13.07;5.28;;;;;;;;;;4258681;27;20047;-81
2023/10/06 00:59:35;;;;;;;11.90;5.00;;;;;;;;;;4234007;28;20039;-81
2023/10/06 01:01:37;;;;;;;11.10;4.93;;;;;;;;;;4234386;28;20054;-80
2023/10/06 01:03:38;;;;;;;10.60;4.88;;;;;;;;;;4235263;27;20459;-80
2023/10/06 01:05:45;;;;;;;13.25;5.57;;;;;;;;;;4233982;28;20048;-81
2023/10/06 01:07:49;;;;;;;12.20;5.53;;;;;;;;;;4250119;27;20039;-81
2023/10/06 01:09:57;;;;;;;10.55;5.30;;;;;;;;;;4250898;27;20044;-81
2023/10/06 01:11:59;;;;;;;13.45;5.72;;;;;;;;;;4251156;27;20051;-80
2023/10/06 01:14:04;;;;;;;10.77;5.53;;;;;;;;;;4249862;27;20047;-81
2023/10/06 01:16:11;;;;;;;14.05;5.80;;;;;;;;;;4250876;27;20047;-80
2023/10/06 01:18:19;;;;;;;14.73;6.72;;;;;;;;;;4249741;27;20112;-80
2023/10/06 01:20:33;;;;;;;16.38;7.95;;;;;;;;;;4250804;27;20050;-80
2023/10/06 01:22:43;;;;;;;19.88;7.28;;;;;;;;;;4237781;27;20043;-80
2023/10/06 01:24:45;;;;;;;14.43;6.43;;;;;;;;;;4268054;27;20042;-79
2023/10/06 01:26:49;;;;;;;13.70;6.07;;;;;;;;;;4262857;27;20043;-80
2023/10/06 01:28:51;;;;;;;24.40;8.88;;;;;;;;;;4256474;27;20043;-81
2023/10/06 01:30:53;;;;;;;19.40;7.65;;;;;;;;;;4250513;27;20043;-82
2023/10/06 01:32:58;;;;;;;16.58;7.15;;;;;;;;;;4250469;27;20043;-81
2023/10/06 01:35:01;;;;;;;17.77;7.28;;;;;;;;;;4250539;27;20078;-82
2023/10/06 01:37:03;;;;;;;27.52;10.05;;;;;;;;;;4249546;27;20127;-82
2023/10/06 01:39:16;;;;;;;52.97;12.13;;;;;;;;;;4250487;27;20071;-81
2023/10/06 01:41:20;;;;;;;46.35;13.13;;;;;;;;;;4250398;27;20077;-82
2023/10/06 01:43:24;;;;;;;39.17;10.98;;;;;;;;;;4250155;27;20043;-80
2023/10/06 01:45:28;;;;;;;28.25;11.63;;;;;;;;;;4232727;27;20142;-81
2023/10/06 01:47:30;;;;;;;18.10;9.40;;;;;;;;;;4249963;27;20070;-81
2023/10/06 01:49:33;;;;;;;18.38;9.18;;;;;;;;;;4250316;27;20047;-81
2023/10/06 01:51:38;;;;;;;26.20;10.55;;;;;;;;;;4262175;27;20420;-81
2023/10/06 01:53:42;;;;;;;16.58;9.40;;;;;;;;;;4255030;27;20062;-80
2023/10/06 01:55:49;;;;;;;16.55;8.80;;;;;;;;;;4249386;27;20069;-81
2023/10/06 01:57:52;;;;;;;15.23;8.75;;;;;;;;;;4249601;27;20088;-82
2023/10/06 01:59:53;;;;;;;19.48;9.32;;;;;;;;;;4250115;27;20066;-81
2023/10/06 02:02:00;;;;;;;16.02;8.27;;;;;;;;;;4240597;27;20035;-81
2023/10/06 02:04:07;;;;;;;17.80;8.90;;;;;;;;;;4233146;28;20122;-81
2023/10/06 02:06:16;;;;;;;26.25;11.13;;;;;;;;;;4247955;27;20047;-81
2023/10/06 02:08:23;;;;;;;29.35;11.50;;;;;;;;;;4249338;27;20182;-81
2023/10/06 02:10:25;;;;;;;27.85;12.68;;;;;;;;;;4250203;27;20104;-80
2023/10/06 02:12:29;;;;;;;23.75;10.70;;;;;;;;;;4250160;27;20065;-81
2023/10/06 02:14:31;;;;;;;19.58;9.52;;;;;;;;;;4249895;27;20043;-82
2023/10/06 02:16:33;;;;;;;18.50;9.65;;;;;;;;;;4250107;27;20537;-81
2023/10/06 02:18:40;;;;;;;18.63;9.50;;;;;;;;;;4249185;27;20077;-81
2023/10/06 02:20:46;;;;;;;18.40;9.30;;;;;;;;;;4249678;27;20047;-81
2023/10/06 02:22:50;;;;;;;12.73;7.05;;;;;;;;;;4249826;27;20047;-81
2023/10/06 02:24:52;;;;;;;20.88;9.00;;;;;;;;;;4249650;27;20050;-82
2023/10/06 02:27:00;;;;;;;17.15;8.05;;;;;;;;;;4237496;27;20051;-81
2023/10/06 02:29:07;;;;;;;15.30;8.55;;;;;;;;;;4253043;27;20130;-82
2023/10/06 02:31:10;;;;;;;16.98;8.45;;;;;;;;;;4232657;28;20052;-82
2023/10/06 02:33:13;;;;;;;16.75;8.38;;;;;;;;;;4232514;28;20047;-81
2023/10/06 02:35:17;;;;;;;16.00;8.63;;;;;;;;;;4243178;27;20070;-82
2023/10/06 02:37:23;;;;;;;14.48;7.32;;;;;;;;;;4253385;27;20459;-81
2023/10/06 02:39:33;;;;;;;12.07;6.60;;;;;;;;;;4266821;27;20130;-81
2023/10/06 02:41:36;;;;;;;13.40;6.65;;;;;;;;;;4253051;27;20043;-81
2023/10/06 02:43:40;;;;;;;12.77;5.93;;;;;;;;;;4249361;27;20393;-81
2023/10/06 02:45:44;;;;;;;14.98;5.88;;;;;;;;;;4248701;27;20043;-81
2023/10/06 02:47:46;;;;;;;12.10;5.85;;;;;;;;;;4257131;27;20047;-81
2023/10/06 02:49:49;;;;;;;14.70;6.03;;;;;;;;;;4266446;27;20110;-81
2023/10/06 02:51:54;;;;;;;16.50;6.78;;;;;;;;;;4266480;27;20047;-81
2023/10/06 02:54:09;;;;;;;16.48;7.03;;;;;;;;;;4266560;27;20403;-81
2023/10/06 02:56:16;;;;;;;;;;;;;;;;;;4266688;27;20050;-81
2023/10/06 02:58:26;;;;;;;14.98;7.07;;;;;;;;;;4239604;27;19920;-81
2023/10/06 03:00:31;;;;;;;15.52;7.32;;;;;;;;;;4249355;27;20050;-79
2023/10/06 03:02:34;;;;;;;13.50;7.47;;;;;;;;;;4248660;27;20047;-81
2023/10/06 03:04:39;;;;;;;14.40;8.15;;;;;;;;;;4249642;27;20395;-80
2023/10/06 03:06:41;;;;;;;18.02;7.93;;;;;;;;;;4248821;27;20143;-81
2023/10/06 03:08:44;;;;;;;15.40;7.88;;;;;;;;;;4248646;27;20047;-80
2023/10/06 03:10:45;;;;;;;22.90;9.40;;;;;;;;;;4249372;27;20050;-81
2023/10/06 03:12:49;;;;;;;24.83;10.02;;;;;;;;;;4252971;27;20531;-80
2023/10/06 03:14:54;;;;;;;44.15;11.05;;;;;;;;;;4249768;27;20051;-81
2023/10/06 03:16:57;;;;;;;27.40;11.57;;;;;;;;;;4248280;27;20072;-81
2023/10/06 03:19:00;;;;;;;30.30;10.27;;;;;;;;;;4266079;27;20099;-81
2023/10/06 03:21:13;;;;;;;29.17;10.15;;;;;;;;;;4266152;27;20038;-82
2023/10/06 03:23:26;;;;;;;23.55;11.07;;;;;;;;;;4266082;27;20095;-81
2023/10/06 03:25:28;;;;;;;24.88;10.23;;;;;;;;;;4266263;27;20448;-81
2023/10/06 03:27:29;;;;;;;20.98;10.07;;;;;;;;;;4252075;27;20047;-82
2023/10/06 03:29:44;;;;;;;22.92;9.95;;;;;;;;;;4232260;28;20051;-81
2023/10/06 03:31:46;;;;;;;18.15;8.98;;;;;;;;;;4233846;28;20051;-81
2023/10/06 03:33:50;;;;;;;16.60;8.07;;;;;;;;;;4248917;27;20047;-80
2023/10/06 03:35:54;;;;;;;18.30;8.38;;;;;;;;;;4248249;27;20051;-81
2023/10/06 03:38:08;;;;;;;14.40;7.63;;;;;;;;;;4255901;27;20049;-82
2023/10/06 03:40:23;;;;;;;17.83;8.73;;;;;;;;;;4262150;27;20472;-82
2023/10/06 03:42:27;;;;;;;17.80;8.80;;;;;;;;;;4231654;28;20056;-82
2023/10/06 03:44:30;;;;;;;16.30;7.63;;;;;;;;;;4231925;28;20385;-82
2023/10/06 03:46:37;;;;;;;15.65;7.88;;;;;;;;;;4231681;28;20047;-84
2023/10/06 03:48:39;;;;;;;15.35;8.13;;;;;;;;;;4238178;27;20082;-82
2023/10/06 03:50:43;;;;;;;15.05;7.35;;;;;;;;;;4231688;28;20178;-81
2023/10/06 03:52:47;;;;;;;14.43;7.50;;;;;;;;;;4231481;28;20058;-82
2023/10/06 03:54:52;;;;;;;14.60;7.43;;;;;;;;;;4231433;28;20058;-80
2023/10/06 03:56:54;;;;;;;17.02;8.20;;;;;;;;;;4234222;28;20089;-81
2023/10/06 03:58:56;;;;;;;17.55;7.50;;;;;;;;;;4263846;27;20042;-80
2023/10/06 04:01:07;;;;;;;11.30;5.80;;;;;;;;;;4257775;27;20040;-81
2023/10/06 04:03:13;;;;;;;12.40;5.90;;;;;;;;;;4234896;28;20044;-88
2023/10/06 04:05:18;;;;;;;14.65;6.05;;;;;;;;;;4249301;28;20051;-88
2023/10/06 04:07:23;;;;;;;12.32;6.40;;;;;;;;;;4242520;28;20481;-84
2023/10/06 04:09:28;;;;;;;17.25;6.70;;;;;;;;;;4232150;28;20043;-82
2023/10/06 04:11:31;;;;;;;18.85;6.57;;;;;;;;;;4231801;28;20048;-82
2023/10/06 04:13:33;;;;;;;15.88;7.63;;;;;;;;;;4235534;28;20468;-82
2023/10/06 04:15:38;;;;;;;14.00;7.45;;;;;;;;;;4250521;27;20039;-84
2023/10/06 04:17:40;;;;;;;13.05;7.32;;;;;;;;;;4251429;27;20532;-84
2023/10/06 04:19:42;;;;;;;13.45;6.45;;;;;;;;;;4251797;27;20052;-83
2023/10/06 04:21:45;;;;;;;15.90;8.02;;;;;;;;;;4252049;27;20450;-83
2023/10/06 04:23:47;;;;;;;13.90;7.15;;;;;;;;;;4252085;27;20657;-84
2023/10/06 04:25:54;;;;;;;12.82;6.80;;;;;;;;;;4252212;27;20055;-83
2023/10/06 04:27:57;;;;;;;13.57;6.68;;;;;;;;;;4252307;27;20062;-85
2023/10/06 04:29:59;;;;;;;10.10;5.97;;;;;;;;;;4252236;27;20051;-84
2023/10/06 04:32:01;;;;;;;13.73;7.00;;;;;;;;;;4252457;27;20051;-84
2023/10/06 04:34:04;;;;;;;15.63;6.85;;;;;;;;;;4252638;27;20484;-83
2023/10/06 04:36:08;;;;;;;15.75;6.80;;;;;;;;;;4252291;27;20047;-83
2023/10/06 04:38:12;;;;;;;11.30;6.43;;;;;;;;;;4252549;27;20050;-85
2023/10/06 04:40:19;;;;;;;12.23;6.60;;;;;;;;;;4252399;27;20051;-84
2023/10/06 04:42:22;;;;;;;12.90;7.35;;;;;;;;;;4234625;27;20048;-84
2023/10/06 04:44:25;;;;;;;13.63;6.93;;;;;;;;;;4252373;27;20567;-84
2023/10/06 04:46:30;;;;;;;13.65;6.65;;;;;;;;;;4252121;27;20541;-84
2023/10/06 04:48:32;;;;;;;13.02;5.88;;;;;;;;;;4252559;27;20114;-83
2023/10/06 04:50:35;;;;;;;14.55;7.15;;;;;;;;;;4251941;27;20046;-83
2023/10/06 04:52:38;;;;;;;13.18;6.82;;;;;;;;;;4251872;27;20047;-83
2023/10/06 04:54:40;;;;;;;13.13;7.20;;;;;;;;;;4234236;28;20148;-84
2023/10/06 04:56:42;;;;;;;14.65;7.05;;;;;;;;;;4252065;27;20051;-84
2023/10/06 04:58:46;;;;;;;14.60;7.03;;;;;;;;;;4252028;27;20445;-82
2023/10/06 05:00:52;;;;;;;11.40;6.22;;;;;;;;;;4211357;28;20107;-84
2023/10/06 05:02:55;;;;;;;11.63;6.30;;;;;;;;;;4218583;28;20446;-90
2023/10/06 05:05:00;;;;;;;10.43;6.13;;;;;;;;;;4236817;28;20048;-88
2023/10/06 05:07:06;;;;;;;11.40;5.68;;;;;;;;;;4237697;28;20067;-89
2023/10/06 05:09:09;;;;;;;11.05;6.13;;;;;;;;;;4239634;28;20052;-86
2023/10/06 05:11:12;;;;;;;9.85;5.93;;;;;;;;;;4238724;28;20138;-87
2023/10/06 05:13:14;;;;;;;10.52;6.57;;;;;;;;;;4244953;27;20054;-86
2023/10/06 05:15:23;;;;;;;11.60;6.07;;;;;;;;;;4239883;28;20047;-86
2023/10/06 05:17:25;;;;;;;12.57;6.78;;;;;;;;;;4258537;27;20054;-87
2023/10/06 05:19:27;;;;;;;15.93;7.50;;;;;;;;;;4240877;28;20528;-88
2023/10/06 05:21:30;;;;;;;22.27;7.15;;;;;;;;;;4243412;28;20048;-86
2023/10/06 05:23:31;;;;;;;12.02;6.43;;;;;;;;;;4242416;27;20520;-86
2023/10/06 05:25:34;;;;;;;10.15;5.82;;;;;;;;;;4237853;28;20061;-86
2023/10/06 05:28:10;;;;;;;8.35;5.32;;;;;;;;;;4221868;28;20064;-87
2023/10/06 05:30:13;;;;;;;22.73;5.82;;;;;;;;;;4246480;28;20047;-88
2023/10/06 05:32:27;;;;;;;12.32;5.95;;;;;;;;;;4240024;28;20062;-88
2023/10/06 05:34:34;;;;;;;9.38;5.68;;;;;;;;;;4264665;27;20051;-87
2023/10/06 05:39:17;;;;;;;31.10;6.57;;;;;;;;;;4221603;27;20089;-87
2023/10/06 05:41:21;;;;;;;26.38;5.85;;;;;;;;;;4245534;27;20047;-88
2023/10/06 05:43:28;;;;;;;7.72;5.00;;;;;;;;;;4259865;27;20082;-87
2023/10/06 05:45:30;;;;;;;7.43;5.25;;;;;;;;;;4258848;27;20055;-87
2023/10/06 05:47:35;;;;;;;8.32;5.30;;;;;;;;;;4226726;28;20089;-88
2023/10/06 05:49:47;;;;;;;22.08;5.88;;;;;;;;;;4261324;27;20116;-87
2023/10/06 05:51:50;;;;;;;10.73;5.10;;;;;;;;;;4257712;27;20043;-88
2023/10/06 05:53:52;;;;;;;14.65;4.68;;;;;;;;;;4238644;28;20059;-88
2023/10/06 05:55:55;;;;;;;9.23;5.80;;;;;;;;;;4262445;27;20057;-86
2023/10/06 05:58:00;;;;;;;6.82;4.53;;;;;;;;;;4240532;28;20052;-87
2023/10/06 06:00:02;;;;;;;8.10;5.15;;;;;;;;;;4251293;27;20047;-86
2023/10/06 06:02:05;;;;;;;7.30;4.88;;;;;;;;;;4251468;27;20486;-87
2023/10/06 06:04:09;;;;;;;9.18;5.40;;;;;;;;;;4262975;27;20111;-87
2023/10/06 06:06:14;;;;;;;12.88;5.43;;;;;;;;;;4244519;28;20047;-88
2023/10/06 06:08:16;;;;;;;10.68;5.28;;;;;;;;;;4261371;27;20077;-87
2023/10/06 06:10:19;;;;;;;6.97;4.30;;;;;;;;;;4258284;27;20068;-85
2023/10/06 06:12:22;;;;;;;6.70;4.28;;;;;;;;;;4258610;27;20051;-86
2023/10/06 06:14:29;;;;;;;6.95;4.57;;;;;;;;;;4238137;28;20056;-85
2023/10/06 06:16:31;;;;;;;6.75;4.30;;;;;;;;;;4253717;27;20066;-87
2023/10/06 06:18:34;;;;;;;6.40;4.38;;;;;;;;;;4253468;27;20047;-87
2023/10/06 06:20:38;;;;;;;7.60;4.57;;;;;;;;;;4254141;27;20403;-86
2023/10/06 06:22:48;;;;;;;8.07;4.97;;;;;;;;;;4256744;27;20043;-88
2023/10/06 06:24:50;;;;;;;10.40;5.60;;;;;;;;;;4238816;27;20048;-86
2023/10/06 06:26:52;;;;;;;7.45;4.68;;;;;;;;;;4253702;27;20051;-86
2023/10/06 06:28:55;;;;;;;8.95;5.53;;;;;;;;;;4252903;27;20053;-88
2023/10/06 06:31:03;;;;;;;7.82;5.68;;;;;;;;;;4236110;28;20047;-88
2023/10/06 06:33:07;;;;;;;8.70;5.38;;;;;;;;;;4254119;27;20465;-86
2023/10/06 06:35:13;;;;;;;13.57;6.65;;;;;;;;;;4253717;27;20074;-88
2023/10/06 06:37:17;;;;;;;12.85;5.75;;;;;;;;;;4252839;27;20427;-89
2023/10/06 06:39:21;;;;;;;11.75;6.05;;;;;;;;;;4257360;27;20397;-86
2023/10/06 06:41:25;;;;;;;10.73;5.85;;;;;;;;;;4253966;27;20142;-88
2023/10/06 06:43:27;;;;;;;11.65;6.07;;;;;;;;;;4233485;28;20055;-87
2023/10/06 06:45:39;;;;;;;10.90;6.00;;;;;;;;;;4251998;27;20039;-88
2023/10/06 06:47:43;;;;;;;12.00;5.93;;;;;;;;;;4252199;27;20126;-88
2023/10/06 06:49:48;;;;;;;12.27;7.10;;;;;;;;;;4250409;27;20100;-87
2023/10/06 06:51:52;;;;;;;13.68;6.90;;;;;;;;;;4232028;28;20070;-87
2023/10/06 06:53:56;;;;;;;12.85;7.80;;;;;;;;;;4250307;27;20071;-86
2023/10/06 06:55:58;;;;;;;15.93;7.78;;;;;;;;;;4249916;27;20055;-87
2023/10/06 06:58:05;;;;;;;13.52;8.13;;;;;;;;;;4232349;28;20043;-88
2023/10/06 07:00:15;;;;;;;14.32;7.45;;;;;;;;;;4250378;27;20442;-86
2023/10/06 07:02:17;;;;;;;15.40;8.90;;;;;;;;;;4232815;27;20047;-88
2023/10/06 07:04:24;;;;;;;16.13;7.55;;;;;;;;;;4249835;27;20532;-87
2023/10/06 07:06:26;;;;;;;16.65;8.38;;;;;;;;;;4249748;27;20051;-89
2023/10/06 07:08:28;;;;;;;13.80;8.05;;;;;;;;;;4249955;27;20039;-86
2023/10/06 07:10:32;;;;;;;17.13;8.63;;;;;;;;;;4249570;27;20046;-88
2023/10/06 07:12:34;;;;;;;13.45;7.70;;;;;;;;;;4249658;27;20043;-88
2023/10/06 07:14:36;;;;;;;15.52;8.50;;;;;;;;;;4249820;27;20430;-88
2023/10/06 07:16:39;;;;;;;14.75;8.95;;;;;;;;;;4249394;27;20043;-87
2023/10/06 07:18:41;;;;;;;17.63;8.65;;;;;;;;;;4249576;27;20121;-87
2023/10/06 07:20:44;;;;;;;14.40;7.55;;;;;;;;;;4249425;27;20043;-86
2023/10/06 07:22:46;;;;;;;14.80;9.15;;;;;;;;;;4249378;27;20039;-86
2023/10/06 07:24:49;;;;;;;14.90;8.27;;;;;;;;;;4248860;27;20090;-89
2023/10/06 07:26:53;;;;;;;13.07;8.20;;;;;;;;;;4249489;27;20047;-88
2023/10/06 07:28:56;;;;;;;14.43;7.90;;;;;;;;;;4249363;27;20047;-88
2023/10/06 07:30:59;;;;;;;11.20;6.78;;;;;;;;;;4231383;28;20043;-89
2023/10/06 07:33:02;;;;;;;15.50;8.45;;;;;;;;;;4249371;27;20554;-90
2023/10/06 07:35:06;;;;;;;14.07;7.40;;;;;;;;;;4249538;27;20082;-90
2023/10/06 07:37:08;;;;;;;15.57;9.15;;;;;;;;;;4249182;27;20132;-88
2023/10/06 07:39:20;;;;;;;13.43;7.55;;;;;;;;;;4249303;27;20468;-90
2023/10/06 07:41:24;;;;;;;14.82;8.40;;;;;;;;;;4249417;27;20453;-89
2023/10/06 07:43:28;;;;;;;14.68;8.35;;;;;;;;;;4231242;28;20043;-90
2023/10/06 07:45:32;;;;;;;15.18;8.63;;;;;;;;;;4249218;27;20438;-90
2023/10/06 07:47:34;;;;;;;15.90;8.35;;;;;;;;;;4231570;28;20058;-91
2023/10/06 07:49:37;;;;;;;16.10;7.68;;;;;;;;;;4235951;27;20039;-90
2023/10/06 07:51:45;;;;;;;;;;;;;;;;;;4231601;28;20052;-92
2023/10/06 07:53:48;;;;;;;14.45;8.30;;;;;;;;;;4248869;27;19964;-91
2023/10/06 07:55:50;;;;;;;15.35;8.57;;;;;;;;;;4249229;28;20054;-89
2023/10/06 07:57:53;;;;;;;12.27;7.68;;;;;;;;;;4248883;28;20047;-88
2023/10/06 07:59:57;;;;;;;16.20;8.60;;;;;;;;;;4249063;28;20054;-91
2023/10/06 08:01:59;;;;;;;17.63;8.90;;;;;;;;;;4248785;28;20096;-91
2023/10/06 08:04:03;;;;;;;18.20;8.02;;;;;;;;;;4231198;28;20420;-89
2023/10/06 08:06:05;;;;;;;17.67;9.00;;;;;;;;;;4248969;28;20050;-90
2023/10/06 08:08:07;;;;;;;16.55;9.15;;;;;;;;;;4230225;28;20036;-89
2023/10/06 08:10:13;;;;;;;16.80;8.00;;;;;;;;;;4248963;28;20039;-89
2023/10/06 08:12:17;;;;;;;20.05;8.55;;;;;;;;;;4249188;28;20055;-90
2023/10/06 08:14:20;;;;;;;18.23;8.98;;;;;;;;;;4248945;28;20039;-90
2023/10/06 08:16:26;;;;;;;14.13;8.45;;;;;;;;;;4249113;28;20472;-89
2023/10/06 08:18:29;;;;;;;18.27;8.70;;;;;;;;;;4249002;28;20050;-87
2023/10/06 08:20:32;;;;;;;17.75;9.00;;;;;;;;;;4231321;28;20462;-90
2023/10/06 08:22:34;;;;;;;13.73;7.63;;;;;;;;;;4249777;27;20045;-87
2023/10/06 08:24:37;;;;;;;15.38;7.75;;;;;;;;;;4248697;28;20100;-87
2023/10/06 08:26:41;;;;;;;14.48;8.55;;;;;;;;;;4248784;28;20159;-87
2023/10/06 08:28:43;;;;;;;14.85;8.07;;;;;;;;;;4248640;28;20133;-86
2023/10/06 08:30:45;;;;;;;16.30;8.63;;;;;;;;;;4213403;28;20040;-87
2023/10/06 08:32:52;;;;;;;14.85;8.20;;;;;;;;;;4248618;28;20066;-87
2023/10/06 08:34:54;;;;;;;15.23;7.90;;;;;;;;;;4230404;28;20132;-87
2023/10/06 08:36:56;;;;;;;15.60;8.10;;;;;;;;;;4248405;28;20039;-87
2023/10/06 08:39:00;;;;;;;15.82;8.05;;;;;;;;;;4248450;28;20508;-87
2023/10/06 08:41:04;;;;;;;17.05;8.65;;;;;;;;;;4230283;28;20040;-86
2023/10/06 08:43:06;;;;;;;15.48;8.48;;;;;;;;;;4230529;28;20044;-87
2023/10/06 08:45:10;;;;;;;16.05;8.57;;;;;;;;;;4248685;28;20130;-86
2023/10/06 08:47:15;;;;;;;15.57;8.13;;;;;;;;;;4248572;28;20054;-87
2023/10/06 08:49:19;;;;;;;17.05;7.85;;;;;;;;;;4248634;28;20043;-86
2023/10/06 08:51:25;;;;;;;15.75;7.45;;;;;;;;;;4248728;28;20458;-87
2023/10/06 08:53:28;;;;;;;14.70;8.32;;;;;;;;;;4227502;28;20055;-86
2023/10/06 08:55:31;;;;;;;16.10;8.00;;;;;;;;;;4248161;28;20177;-88
2023/10/06 08:57:33;;;;;;;15.77;7.80;;;;;;;;;;4230155;28;20058;-87
2023/10/06 08:59:35;;;;;;;15.38;7.15;;;;;;;;;;4247243;27;20043;-87
2023/10/06 09:01:38;;;;;;;14.98;7.00;;;;;;;;;;4250931;27;20047;-88
2023/10/06 09:03:40;;;;;;;15.07;7.55;;;;;;;;;;4233238;28;20081;-87
2023/10/06 09:05:45;;;;;;;16.27;7.53;;;;;;;;;;4251136;27;20055;-87
2023/10/06 09:08:00;;;;;;;16.27;7.38;;;;;;;;;;4232521;28;20050;-88
2023/10/06 09:10:17;;;;;;;16.23;7.78;;;;;;;;;;4251342;27;20051;-88
2023/10/06 09:12:26;;;;;;;14.80;7.20;;;;;;;;;;4250592;27;20043;-88
2023/10/06 09:14:28;;;;;;;12.90;7.05;;;;;;;;;;4251562;27;20541;-87
2023/10/06 09:16:48;;;;;;;18.52;8.10;;;;;;;;;;4256447;27;20096;-87
2023/10/06 09:19:01;;;;;;;16.85;7.47;;;;;;;;;;4256940;27;20062;-87
2023/10/06 09:21:15;;;;;;;16.42;7.57;;;;;;;;;;4257424;27;20047;-87
2023/10/06 09:23:32;;;;;;;12.63;6.80;;;;;;;;;;4259540;27;20074;-87
2023/10/06 09:25:45;;;;;;;14.68;7.65;;;;;;;;;;4260645;27;20128;-88
2023/10/06 09:27:48;;;;;;;15.07;6.32;;;;;;;;;;4255875;27;20051;-86
2023/10/06 09:30:00;;;;;;;14.98;7.10;;;;;;;;;;4251254;27;20100;-87
2023/10/06 09:32:12;;;;;;;17.05;7.30;;;;;;;;;;4252181;27;20051;-87
2023/10/06 09:34:24;;;;;;;13.50;6.40;;;;;;;;;;4239387;28;20444;-89
2023/10/06 09:36:33;;;;;;;14.57;6.68;;;;;;;;;;4216601;28;20093;-85
2023/10/06 09:38:36;;;;;;;13.20;6.97;;;;;;;;;;4251314;27;20095;-86
2023/10/06 09:40:46;;;;;;;12.13;6.15;;;;;;;;;;4232334;28;20473;-86
2023/10/06 09:42:49;;;;;;;13.85;7.25;;;;;;;;;;4251016;27;20051;-86
2023/10/06 09:45:01;;;;;;;12.25;7.03;;;;;;;;;;4250833;27;20054;-83
2023/10/06 09:47:08;;;;;;;13.60;7.18;;;;;;;;;;4233376;27;20050;-88
2023/10/06 09:49:15;;;;;;;14.05;7.03;;;;;;;;;;4232994;27;20043;-87
2023/10/06 09:51:19;;;;;;;13.52;6.55;;;;;;;;;;4250362;27;20103;-82
2023/10/06 09:53:21;;;;;;;14.18;6.82;;;;;;;;;;4250164;27;20047;-83
2023/10/06 09:55:25;;;;;;;12.57;6.22;;;;;;;;;;4249481;27;20397;-83
2023/10/06 09:57:27;;;;;;;13.98;6.07;;;;;;;;;;4250149;27;20043;-83
2023/10/06 09:59:33;;;;;;;15.15;6.70;;;;;;;;;;4249835;27;20083;-83
2023/10/06 10:01:36;;;;;;;15.85;6.50;;;;;;;;;;4250056;27;20100;-83
2023/10/06 10:03:38;;;;;;;13.43;6.38;;;;;;;;;;4250088;27;20093;-84
2023/10/06 10:05:41;;;;;;;14.13;5.95;;;;;;;;;;4249829;27;20047;-84
2023/10/06 10:07:44;;;;;;;12.10;6.20;;;;;;;;;;4249673;27;20088;-84
2023/10/06 10:09:48;;;;;;;13.15;6.57;;;;;;;;;;4249400;27;20047;-82
2023/10/06 10:12:00;;;;;;;13.98;6.35;;;;;;;;;;4249841;27;20514;-82
2023/10/06 10:14:26;;;;;;;14.35;6.43;;;;;;;;;;4249534;27;20043;-84
2023/10/06 10:16:38;;;;;;;14.00;6.57;;;;;;;;;;4249520;27;20049;-84
2023/10/06 10:18:41;;;;;;;12.52;6.22;;;;;;;;;;4249554;27;20108;-83
2023/10/06 10:20:46;;;;;;;12.20;6.07;;;;;;;;;;4249805;27;20443;-84
2023/10/06 10:22:52;;;;;;;13.75;6.15;;;;;;;;;;4249336;27;20043;-83
2023/10/06 10:24:58;;;;;;;;;;;;;;;;;;4250126;27;20067;-83
2023/10/06 10:27:00;;;;;;;17.50;6.20;;;;;;;;;;4249635;27;19919;-84
2023/10/06 10:29:32;;;;;;;14.63;5.93;;;;;;;;;;4249483;27;20047;-84
2023/10/06 10:31:38;;;;;;;15.13;5.93;;;;;;;;;;4164062;28;20049;-81
2023/10/06 10:33:40;;;;;;;16.48;6.43;;;;;;;;;;4210407;27;20054;-83
2023/10/06 10:36:20;;;;;;;13.07;5.70;;;;;;;;;;4249465;27;20039;-83
2023/10/06 10:38:23;;;;;;;13.77;6.30;;;;;;;;;;4249400;27;20043;-83
2023/10/06 10:40:28;;;;;;;12.02;5.65;;;;;;;;;;4249296;27;20407;-84
2023/10/06 10:42:42;;;;;;;13.87;6.37;;;;;;;;;;4249176;27;20074;-83
2023/10/06 10:44:45;;;;;;;14.07;6.22;;;;;;;;;;4249189;27;20729;-83
2023/10/06 10:46:49;;;;;;;12.73;6.45;;;;;;;;;;4249107;27;20047;-82
2023/10/06 10:48:52;;;;;;;10.52;5.47;;;;;;;;;;4249252;27;20077;-83
2023/10/06 10:51:01;;;;;;;12.32;6.22;;;;;;;;;;4249155;27;20100;-83
2023/10/06 10:53:03;;;;;;;13.30;6.22;;;;;;;;;;4230707;28;20051;-83
2023/10/06 10:55:06;;;;;;;11.23;5.45;;;;;;;;;;4248842;27;20486;-81
2023/10/06 10:57:14;;;;;;;13.13;5.90;;;;;;;;;;4248996;27;20043;-84
2023/10/06 10:59:16;;;;;;;12.90;5.72;;;;;;;;;;4249181;27;20500;-81
2023/10/06 11:01:29;;;;;;;12.32;5.68;;;;;;;;;;4249002;27;20051;-83
2023/10/06 11:03:32;;;;;;;11.32;5.55;;;;;;;;;;4248838;27;20104;-82
2023/10/06 11:05:37;;;;;;;12.05;5.22;;;;;;;;;;4248670;27;20081;-83
2023/10/06 11:07:39;;;;;;;15.73;5.82;;;;;;;;;;4248805;27;20479;-83
2023/10/06 11:09:46;;;;;;;11.45;5.43;;;;;;;;;;4248511;27;20084;-83
2023/10/06 11:11:48;;;;;;;12.50;5.35;;;;;;;;;;4248855;27;20047;-83
2023/10/06 11:14:00;;;;;;;11.48;5.43;;;;;;;;;;4248698;27;20046;-81
2023/10/06 11:16:05;;;;;;;11.98;5.35;;;;;;;;;;4248894;27;20133;-81
2023/10/06 11:18:07;;;;;;;11.45;4.85;;;;;;;;;;4248563;27;20047;-84
2023/10/06 11:20:15;;;;;;;10.25;4.47;;;;;;;;;;4248795;27;20047;-84
2023/10/06 11:22:19;;;;;;;8.85;4.57;;;;;;;;;;4248810;27;20083;-84
2023/10/06 11:24:28;;;;;;;9.13;4.60;;;;;;;;;;4248334;27;20507;-83
2023/10/06 11:26:30;;;;;;;9.82;4.80;;;;;;;;;;4247982;27;20047;-82
2023/10/06 11:28:41;;;;;;;10.60;4.43;;;;;;;;;;4248856;27;20047;-82
2023/10/06 11:30:45;;;;;;;9.27;4.47;;;;;;;;;;4249967;27;20491;-82
2023/10/06 11:32:46;;;;;;;9.30;3.90;;;;;;;;;;4230944;28;20044;-83
2023/10/06 11:34:49;;;;;;;9.45;4.25;;;;;;;;;;4250836;27;20039;-82
2023/10/06 11:36:53;;;;;;;9.57;3.90;;;;;;;;;;4250104;27;20043;-83
2023/10/06 11:38:55;;;;;;;9.35;4.20;;;;;;;;;;4248679;27;20082;-82
2023/10/06 11:40:57;;;;;;;7.55;3.80;;;;;;;;;;4248109;27;20069;-82
2023/10/06 11:43:12;;;;;;;8.32;3.75;;;;;;;;;;4248462;27;20044;-83
2023/10/06 11:45:25;;;;;;;10.23;4.00;;;;;;;;;;4248780;27;20096;-83
2023/10/06 11:47:44;;;;;;;9.43;4.55;;;;;;;;;;4248168;27;20043;-83
2023/10/06 11:49:55;;;;;;;13.48;4.80;;;;;;;;;;4248555;27;20483;-83
2023/10/06 11:51:57;;;;;;;11.77;4.20;;;;;;;;;;4248436;27;20058;-82
2023/10/06 11:54:00;;;;;;;7.50;3.58;;;;;;;;;;4248030;27;20043;-83
2023/10/06 11:56:07;;;;;;;9.98;4.40;;;;;;;;;;4248226;28;20039;-83
2023/10/06 16:14:50;;;;;;;10.00;4.55;;;;;;;;;;4279835;27;20339;-85
2023/10/06 16:16:53;;;;;;;9.35;4.28;;;;;;;;;;4267218;27;20035;-85
2023/10/06 16:18:54;;;;;;;10.68;4.93;;;;;;;;;;4271557;27;20046;-84
2023/10/06 16:20:57;;;;;;;11.63;5.05;;;;;;;;;;4278414;27;20043;-83
2023/10/06 16:22:59;;;;;;;9.27;4.60;;;;;;;;;;4276979;27;20058;-85
2023/10/06 16:25:05;;;;;;;11.00;4.50;;;;;;;;;;4292534;27;20142;-85
2023/10/06 16:27:07;;;;;;;11.10;4.68;;;;;;;;;;4285584;27;20045;-85
2023/10/06 16:29:11;;;;;;;12.80;5.10;;;;;;;;;;4278639;27;20085;-86
2023/10/06 16:31:14;;;;;;;12.13;5.18;;;;;;;;;;4278258;27;20053;-85
2023/10/06 16:33:17;;;;;;;13.43;5.63;;;;;;;;;;4278951;27;20439;-86
2023/10/06 16:35:19;;;;;;;11.60;5.63;;;;;;;;;;4264421;27;20051;-85
2023/10/06 16:37:22;;;;;;;12.85;5.20;;;;;;;;;;4280996;27;20077;-86
2023/10/06 16:39:25;;;;;;;12.77;5.32;;;;;;;;;;4291404;27;20443;-85